sensor_id;sensor_type;location;lat;lon;timestamp;pressure;altitude;pressure_sealevel;temperature;humidity
43450;BME280;29041;42.266;23.110;2022-11-04T00:02:42;95945.72;;;9.49;75.81
43450;BME280;29041;42.266;23.110;2022-11-04T00:05:36;95942.09;;;9.45;76.33
43450;BME280;29041;42.266;23.110;2022-11-04T00:08:40;95939.78;;;9.69;74.60
43450;BME280;29041;42.266;23.110;2022-11-04T00:11:28;95930.34;;;9.23;76.71
43450;BME280;29041;42.266;23.110;2022-11-04T00:14:54;95942.66;;;9.01;78.11
43450;BME280;29041;42.266;23.110;2022-11-04T00:18:29;95925.59;;;8.88;78.02
43450;BME280;29041;42.266;23.110;2022-11-04T00:21:33;95948.19;;;9.36;76.34
43450;BME280;29041;42.266;23.110;2022-11-04T00:24:43;95907.97;;;9.28;75.15
43450;BME280;29041;42.266;23.110;2022-11-04T00:28:01;95892.25;;;9.03;75.65
43450;BME280;29041;42.266;23.110;2022-11-04T00:31:13;95916.84;;;9.46;74.62
43450;BME280;29041;42.266;23.110;2022-11-04T00:36:48;95941.16;;;8.86;77.78
43450;BME280;29041;42.266;23.110;2022-11-04T00:39:57;95926.16;;;8.54;78.13
43450;BME280;29041;42.266;23.110;2022-11-04T00:43:10;95913.41;;;8.37;78.72
43450;BME280;29041;42.266;23.110;2022-11-04T00:46:08;95927.22;;;8.30;78.91
43450;BME280;29041;42.266;23.110;2022-11-04T00:49:18;95918.69;;;8.28;79.28
43450;BME280;29041;42.266;23.110;2022-11-04T00:52:19;95920.28;;;8.97;77.33
43450;BME280;29041;42.266;23.110;2022-11-04T00:55:26;95915.19;;;9.18;75.65
43450;BME280;29041;42.266;23.110;2022-11-04T00:58:22;95919.72;;;9.58;74.34
43450;BME280;29041;42.266;23.110;2022-11-04T01:01:13;95905.69;;;9.12;75.05
43450;BME280;29041;42.266;23.110;2022-11-04T01:04:22;95897.97;;;9.11;76.50
43450;BME280;29041;42.266;23.110;2022-11-04T01:07:10;95897.91;;;8.93;75.91
43450;BME280;29041;42.266;23.110;2022-11-04T01:10:35;95900.00;;;8.51;78.29
43450;BME280;29041;42.266;23.110;2022-11-04T01:16:30;95895.06;;;8.44;79.04
43450;BME280;29041;42.266;23.110;2022-11-04T01:19:26;95892.81;;;8.60;78.83
43450;BME280;29041;42.266;23.110;2022-11-04T01:22:32;95894.59;;;8.65;78.36
43450;BME280;29041;42.266;23.110;2022-11-04T01:25:40;95874.81;;;8.52;77.84
43450;BME280;29041;42.266;23.110;2022-11-04T01:31:23;95866.44;;;8.08;78.87
43450;BME280;29041;42.266;23.110;2022-11-04T01:34:16;95893.91;;;8.59;77.89
43450;BME280;29041;42.266;23.110;2022-11-04T01:47:35;95866.50;;;7.57;80.76
43450;BME280;29041;42.266;23.110;2022-11-04T01:50:37;95890.16;;;7.64;81.31
43450;BME280;29041;42.266;23.110;2022-11-04T01:53:31;95882.56;;;7.80;81.44
43450;BME280;29041;42.266;23.110;2022-11-04T01:56:25;95883.06;;;7.82;80.79
43450;BME280;29041;42.266;23.110;2022-11-04T01:59:18;95875.31;;;7.58;81.47
43450;BME280;29041;42.266;23.110;2022-11-04T02:02:07;95878.06;;;7.67;81.36
43450;BME280;29041;42.266;23.110;2022-11-04T02:04:56;95872.22;;;7.65;80.92
43450;BME280;29041;42.266;23.110;2022-11-04T02:07:50;95874.44;;;7.49;82.29
43450;BME280;29041;42.266;23.110;2022-11-04T02:10:41;95875.72;;;7.51;82.75
43450;BME280;29041;42.266;23.110;2022-11-04T02:13:32;95867.13;;;8.14;81.13
43450;BME280;29041;42.266;23.110;2022-11-04T02:16:22;95865.44;;;7.95;81.62
43450;BME280;29041;42.266;23.110;2022-11-04T02:19:24;95860.84;;;7.96;81.13
43450;BME280;29041;42.266;23.110;2022-11-04T02:29:39;95852.84;;;8.18;79.27
43450;BME280;29041;42.266;23.110;2022-11-04T02:35:42;95838.72;;;7.81;81.19
43450;BME280;29041;42.266;23.110;2022-11-04T02:38:37;95844.19;;;7.76;81.50
43450;BME280;29041;42.266;23.110;2022-11-04T02:41:34;95851.03;;;7.68;82.48
43450;BME280;29041;42.266;23.110;2022-11-04T02:44:33;95847.28;;;7.69;81.83
43450;BME280;29041;42.266;23.110;2022-11-04T02:47:23;95854.19;;;7.84;81.65
43450;BME280;29041;42.266;23.110;2022-11-04T02:50:16;95846.31;;;7.51;82.47
43450;BME280;29041;42.266;23.110;2022-11-04T02:53:13;95859.72;;;7.23;83.40
43450;BME280;29041;42.266;23.110;2022-11-04T02:56:04;95858.00;;;7.55;81.89
43450;BME280;29041;42.266;23.110;2022-11-04T02:58:56;95843.59;;;7.14;83.56
43450;BME280;29041;42.266;23.110;2022-11-04T03:01:48;95861.41;;;7.05;84.32
43450;BME280;29041;42.266;23.110;2022-11-04T03:04:41;95838.63;;;6.94;84.84
43450;BME280;29041;42.266;23.110;2022-11-04T03:07:34;95852.41;;;7.29;84.01
43450;BME280;29041;42.266;23.110;2022-11-04T03:10:32;95861.25;;;7.66;82.59
43450;BME280;29041;42.266;23.110;2022-11-04T03:13:42;95850.25;;;7.54;81.96
43450;BME280;29041;42.266;23.110;2022-11-04T03:16:36;95841.09;;;7.32;83.01
43450;BME280;29041;42.266;23.110;2022-11-04T03:19:32;95830.44;;;7.04;83.17
43450;BME280;29041;42.266;23.110;2022-11-04T03:22:25;95857.53;;;6.97;84.64
43450;BME280;29041;42.266;23.110;2022-11-04T03:25:12;95861.56;;;6.95;84.96
43450;BME280;29041;42.266;23.110;2022-11-04T03:28:05;95848.03;;;6.91;83.80
43450;BME280;29041;42.266;23.110;2022-11-04T03:31:01;95856.81;;;6.78;85.08
43450;BME280;29041;42.266;23.110;2022-11-04T03:33:51;95856.72;;;6.69;84.42
43450;BME280;29041;42.266;23.110;2022-11-04T03:36:41;95860.00;;;6.47;85.41
43450;BME280;29041;42.266;23.110;2022-11-04T03:39:29;95860.31;;;6.45;86.14
43450;BME280;29041;42.266;23.110;2022-11-04T03:42:18;95852.63;;;6.44;85.44
43450;BME280;29041;42.266;23.110;2022-11-04T03:45:09;95866.69;;;6.63;85.80
43450;BME280;29041;42.266;23.110;2022-11-04T03:47:57;95859.56;;;6.59;85.86
43450;BME280;29041;42.266;23.110;2022-11-04T03:50:45;95858.31;;;6.98;83.20
43450;BME280;29041;42.266;23.110;2022-11-04T03:53:35;95844.72;;;6.66;84.35
43450;BME280;29041;42.266;23.110;2022-11-04T04:00:00;95833.66;;;6.59;85.20
43450;BME280;29041;42.266;23.110;2022-11-04T04:02:57;95847.91;;;6.55;86.26
43450;BME280;29041;42.266;23.110;2022-11-04T04:05:51;95844.84;;;6.61;86.17
43450;BME280;29041;42.266;23.110;2022-11-04T04:08:43;95854.66;;;6.80;85.79
43450;BME280;29041;42.266;23.110;2022-11-04T04:11:40;95826.34;;;6.65;85.68
43450;BME280;29041;42.266;23.110;2022-11-04T04:14:31;95851.28;;;6.74;84.86
43450;BME280;29041;42.266;23.110;2022-11-04T04:17:31;95847.94;;;6.82;85.19
43450;BME280;29041;42.266;23.110;2022-11-04T04:24:06;95826.31;;;6.37;85.89
43450;BME280;29041;42.266;23.110;2022-11-04T04:27:13;95839.69;;;6.51;85.79
43450;BME280;29041;42.266;23.110;2022-11-04T04:30:19;95819.94;;;6.66;85.45
43450;BME280;29041;42.266;23.110;2022-11-04T04:33:08;95837.56;;;6.81;83.68
43450;BME280;29041;42.266;23.110;2022-11-04T04:35:57;95833.59;;;6.78;84.24
43450;BME280;29041;42.266;23.110;2022-11-04T04:38:45;95845.50;;;6.39;85.65
43450;BME280;29041;42.266;23.110;2022-11-04T04:41:52;95845.50;;;6.39;86.44
43450;BME280;29041;42.266;23.110;2022-11-04T04:44:57;95819.28;;;7.53;80.15
43450;BME280;29041;42.266;23.110;2022-11-04T04:47:48;95838.66;;;7.22;80.03
43450;BME280;29041;42.266;23.110;2022-11-04T04:50:37;95839.19;;;6.63;83.99
43450;BME280;29041;42.266;23.110;2022-11-04T04:53:26;95829.66;;;6.29;85.95
43450;BME280;29041;42.266;23.110;2022-11-04T04:56:14;95840.72;;;6.69;85.81
43450;BME280;29041;42.266;23.110;2022-11-04T04:59:02;95832.16;;;6.53;85.70
43450;BME280;29041;42.266;23.110;2022-11-04T05:01:50;95844.75;;;7.08;83.77
43450;BME280;29041;42.266;23.110;2022-11-04T05:04:40;95845.75;;;6.85;84.11
43450;BME280;29041;42.266;23.110;2022-11-04T05:07:28;95844.38;;;7.29;82.76
43450;BME280;29041;42.266;23.110;2022-11-04T05:10:17;95851.38;;;7.25;82.55
43450;BME280;29041;42.266;23.110;2022-11-04T05:13:04;95839.81;;;7.43;80.14
43450;BME280;29041;42.266;23.110;2022-11-04T05:16:18;95854.44;;;7.32;82.18
43450;BME280;29041;42.266;23.110;2022-11-04T05:19:07;95830.44;;;7.04;82.05
43450;BME280;29041;42.266;23.110;2022-11-04T05:24:30;95871.00;;;6.59;85.54
43450;BME280;29041;42.266;23.110;2022-11-04T05:27:22;95869.00;;;6.18;87.51
43450;BME280;29041;42.266;23.110;2022-11-04T05:30:10;95853.38;;;6.11;88.01
43450;BME280;29041;42.266;23.110;2022-11-04T05:33:04;95860.69;;;6.39;86.75
43450;BME280;29041;42.266;23.110;2022-11-04T05:35:52;95869.41;;;6.44;86.86
43450;BME280;29041;42.266;23.110;2022-11-04T05:38:43;95875.03;;;7.18;84.44
43450;BME280;29041;42.266;23.110;2022-11-04T05:41:30;95870.88;;;6.50;85.00
43450;BME280;29041;42.266;23.110;2022-11-04T05:44:20;95878.94;;;6.64;85.30
43450;BME280;29041;42.266;23.110;2022-11-04T05:47:07;95882.44;;;6.46;85.64
43450;BME280;29041;42.266;23.110;2022-11-04T05:49:55;95882.84;;;6.53;86.05
43450;BME280;29041;42.266;23.110;2022-11-04T05:52:43;95883.00;;;6.76;85.24
43450;BME280;29041;42.266;23.110;2022-11-04T05:55:30;95894.38;;;6.81;85.02
43450;BME280;29041;42.266;23.110;2022-11-04T05:58:17;95895.69;;;6.98;84.18
43450;BME280;29041;42.266;23.110;2022-11-04T06:01:12;95899.22;;;7.77;80.23
43450;BME280;29041;42.266;23.110;2022-11-04T06:04:01;95889.69;;;8.89;74.71
43450;BME280;29041;42.266;23.110;2022-11-04T06:06:51;95897.69;;;9.88;69.62
43450;BME280;29041;42.266;23.110;2022-11-04T06:09:38;95895.94;;;10.88;64.75
43450;BME280;29041;42.266;23.110;2022-11-04T06:12:25;95888.91;;;10.31;65.72
43450;BME280;29041;42.266;23.110;2022-11-04T06:15:14;95898.28;;;11.76;61.24
43450;BME280;29041;42.266;23.110;2022-11-04T06:18:02;95896.34;;;11.77;59.17
43450;BME280;29041;42.266;23.110;2022-11-04T06:20:49;95895.59;;;11.37;60.77
43450;BME280;29041;42.266;23.110;2022-11-04T06:23:38;95899.88;;;11.98;58.45
43450;BME280;29041;42.266;23.110;2022-11-04T06:26:26;95900.84;;;13.61;53.54
43450;BME280;29041;42.266;23.110;2022-11-04T06:29:13;95905.66;;;13.56;52.73
43450;BME280;29041;42.266;23.110;2022-11-04T06:32:01;95905.94;;;13.17;54.29
43450;BME280;29041;42.266;23.110;2022-11-04T06:34:48;95896.50;;;13.11;54.17
43450;BME280;29041;42.266;23.110;2022-11-04T06:37:37;95882.44;;;13.05;54.11
43450;BME280;29041;42.266;23.110;2022-11-04T06:40:25;95883.72;;;13.20;53.56
43450;BME280;29041;42.266;23.110;2022-11-04T06:43:12;95893.38;;;15.89;46.45
43450;BME280;29041;42.266;23.110;2022-11-04T06:46:01;95880.63;;;15.74;45.86
43450;BME280;29041;42.266;23.110;2022-11-04T06:48:54;95889.66;;;14.00;50.48
43450;BME280;29041;42.266;23.110;2022-11-04T06:51:42;95871.19;;;14.43;49.78
43450;BME280;29041;42.266;23.110;2022-11-04T06:54:29;95874.28;;;15.66;46.33
43450;BME280;29041;42.266;23.110;2022-11-04T06:57:18;95877.53;;;14.91;48.94
43450;BME280;29041;42.266;23.110;2022-11-04T07:00:06;95864.69;;;14.72;49.04
43450;BME280;29041;42.266;23.110;2022-11-04T07:02:53;95862.94;;;14.80;49.60
43450;BME280;29041;42.266;23.110;2022-11-04T07:05:40;95866.28;;;14.89;49.86
43450;BME280;29041;42.266;23.110;2022-11-04T07:08:27;95855.31;;;15.14;48.58
43450;BME280;29041;42.266;23.110;2022-11-04T07:11:15;95863.94;;;15.04;49.07
43450;BME280;29041;42.266;23.110;2022-11-04T07:14:03;95855.25;;;16.14;46.85
43450;BME280;29041;42.266;23.110;2022-11-04T07:16:50;95844.38;;;15.59;48.49
43450;BME280;29041;42.266;23.110;2022-11-04T07:19:38;95831.84;;;16.06;47.02
43450;BME280;29041;42.266;23.110;2022-11-04T07:22:25;95845.97;;;16.15;47.48
43450;BME280;29041;42.266;23.110;2022-11-04T07:25:12;95837.31;;;16.91;45.64
43450;BME280;29041;42.266;23.110;2022-11-04T07:27:59;95827.66;;;16.71;46.06
43450;BME280;29041;42.266;23.110;2022-11-04T07:30:48;95828.72;;;16.43;46.63
43450;BME280;29041;42.266;23.110;2022-11-04T07:33:35;95824.72;;;16.79;46.38
43450;BME280;29041;42.266;23.110;2022-11-04T07:36:22;95810.44;;;16.59;47.35
43450;BME280;29041;42.266;23.110;2022-11-04T07:39:10;95821.78;;;16.45;47.79
43450;BME280;29041;42.266;23.110;2022-11-04T07:41:57;95807.56;;;16.72;47.13
43450;BME280;29041;42.266;23.110;2022-11-04T07:44:44;95791.78;;;17.01;46.75
43450;BME280;29041;42.266;23.110;2022-11-04T07:47:32;95790.94;;;17.47;45.80
43450;BME280;29041;42.266;23.110;2022-11-04T07:50:20;95799.25;;;17.88;45.07
43450;BME280;29041;42.266;23.110;2022-11-04T07:53:07;95801.31;;;17.68;45.12
43450;BME280;29041;42.266;23.110;2022-11-04T07:55:55;95776.91;;;17.41;45.58
43450;BME280;29041;42.266;23.110;2022-11-04T07:58:42;95797.59;;;18.82;43.48
43450;BME280;29041;42.266;23.110;2022-11-04T08:01:29;95793.06;;;18.55;43.78
43450;BME280;29041;42.266;23.110;2022-11-04T08:04:18;95790.78;;;19.02;42.74
43450;BME280;29041;42.266;23.110;2022-11-04T08:07:07;95776.81;;;17.34;47.54
43450;BME280;29041;42.266;23.110;2022-11-04T08:09:54;95785.16;;;18.05;47.78
43450;BME280;29041;42.266;23.110;2022-11-04T08:12:41;95782.72;;;19.10;44.66
43450;BME280;29041;42.266;23.110;2022-11-04T08:15:28;95788.41;;;17.61;47.10
43450;BME280;29041;42.266;23.110;2022-11-04T08:18:16;95773.47;;;18.35;45.73
43450;BME280;29041;42.266;23.110;2022-11-04T08:21:04;95780.22;;;18.52;45.54
43450;BME280;29041;42.266;23.110;2022-11-04T08:23:52;95753.97;;;18.71;44.99
43450;BME280;29041;42.266;23.110;2022-11-04T08:26:39;95752.69;;;18.58;45.14
43450;BME280;29041;42.266;23.110;2022-11-04T08:29:26;95751.50;;;19.52;43.21
43450;BME280;29041;42.266;23.110;2022-11-04T08:32:14;95747.97;;;18.13;46.39
43450;BME280;29041;42.266;23.110;2022-11-04T08:35:01;95753.22;;;18.70;45.50
43450;BME280;29041;42.266;23.110;2022-11-04T08:37:49;95694.16;;;17.58;47.26
43450;BME280;29041;42.266;23.110;2022-11-04T08:40:37;95736.19;;;18.36;46.28
43450;BME280;29041;42.266;23.110;2022-11-04T08:43:24;95741.09;;;18.23;46.33
43450;BME280;29041;42.266;23.110;2022-11-04T08:46:12;95733.16;;;17.46;48.00
43450;BME280;29041;42.266;23.110;2022-11-04T08:48:59;95743.31;;;17.49;47.63
43450;BME280;29041;42.266;23.110;2022-11-04T08:51:47;95728.94;;;16.95;50.31
43450;BME280;29041;42.266;23.110;2022-11-04T08:54:42;95724.94;;;18.00;47.99
43450;BME280;29041;42.266;23.110;2022-11-04T08:57:30;95726.63;;;18.94;44.71
43450;BME280;29041;42.266;23.110;2022-11-04T09:00:17;95713.53;;;19.14;43.91
43450;BME280;29041;42.266;23.110;2022-11-04T09:03:05;95724.09;;;18.75;44.42
43450;BME280;29041;42.266;23.110;2022-11-04T09:05:53;95715.66;;;19.43;43.82
43450;BME280;29041;42.266;23.110;2022-11-04T09:08:40;95712.81;;;19.95;42.07
43450;BME280;29041;42.266;23.110;2022-11-04T09:11:30;95717.78;;;18.60;45.25
43450;BME280;29041;42.266;23.110;2022-11-04T09:14:17;95699.31;;;18.83;44.27
43450;BME280;29041;42.266;23.110;2022-11-04T09:17:05;95702.47;;;18.44;44.77
43450;BME280;29041;42.266;23.110;2022-11-04T09:19:52;95679.06;;;17.95;45.88
43450;BME280;29041;42.266;23.110;2022-11-04T09:22:40;95683.78;;;18.87;43.96
43450;BME280;29041;42.266;23.110;2022-11-04T09:25:27;95681.69;;;19.18;43.88
43450;BME280;29041;42.266;23.110;2022-11-04T09:28:15;95671.19;;;20.16;41.92
43450;BME280;29041;42.266;23.110;2022-11-04T09:31:07;95670.59;;;19.53;42.67
43450;BME280;29041;42.266;23.110;2022-11-04T09:33:55;95664.84;;;18.98;44.35
43450;BME280;29041;42.266;23.110;2022-11-04T09:36:42;95654.22;;;19.49;43.27
43450;BME280;29041;42.266;23.110;2022-11-04T09:39:31;95641.78;;;19.52;42.92
43450;BME280;29041;42.266;23.110;2022-11-04T09:42:31;95635.00;;;20.16;41.68
43450;BME280;29041;42.266;23.110;2022-11-04T09:45:26;95626.84;;;20.48;40.44
43450;BME280;29041;42.266;23.110;2022-11-04T09:48:23;95636.53;;;19.88;42.45
43450;BME280;29041;42.266;23.110;2022-11-04T09:51:12;95619.06;;;20.18;41.99
43450;BME280;29041;42.266;23.110;2022-11-04T09:54:07;95601.13;;;19.91;41.95
43450;BME280;29041;42.266;23.110;2022-11-04T09:56:58;95612.03;;;20.89;40.75
43450;BME280;29041;42.266;23.110;2022-11-04T09:59:46;95596.78;;;20.99;40.47
43450;BME280;29041;42.266;23.110;2022-11-04T10:02:46;95590.25;;;20.35;41.49
43450;BME280;29041;42.266;23.110;2022-11-04T10:05:46;95566.47;;;20.42;41.67
43450;BME280;29041;42.266;23.110;2022-11-04T10:08:49;95584.31;;;21.01;40.59
43450;BME280;29041;42.266;23.110;2022-11-04T10:11:47;95561.38;;;20.81;40.97
43450;BME280;29041;42.266;23.110;2022-11-04T10:14:59;95551.84;;;21.32;40.60
43450;BME280;29041;42.266;23.110;2022-11-04T10:17:58;95562.03;;;21.99;39.66
43450;BME280;29041;42.266;23.110;2022-11-04T10:20:52;95546.28;;;22.14;39.17
43450;BME280;29041;42.266;23.110;2022-11-04T10:23:54;95530.59;;;23.02;37.20
43450;BME280;29041;42.266;23.110;2022-11-04T10:26:44;95529.38;;;23.06;37.27
43450;BME280;29041;42.266;23.110;2022-11-04T10:29:36;95512.63;;;23.63;36.22
43450;BME280;29041;42.266;23.110;2022-11-04T10:32:28;95501.34;;;24.35;34.81
43450;BME280;29041;42.266;23.110;2022-11-04T10:35:23;95512.91;;;23.72;34.57
43450;BME280;29041;42.266;23.110;2022-11-04T10:38:18;95504.31;;;23.97;34.60
43450;BME280;29041;42.266;23.110;2022-11-04T10:41:17;95491.88;;;24.16;33.51
43450;BME280;29041;42.266;23.110;2022-11-04T10:44:09;95476.81;;;23.77;32.74
43450;BME280;29041;42.266;23.110;2022-11-04T10:47:09;95478.53;;;24.18;32.54
43450;BME280;29041;42.266;23.110;2022-11-04T10:53:22;95469.44;;;25.26;31.21
43450;BME280;29041;42.266;23.110;2022-11-04T10:56:17;95452.78;;;24.96;30.14
43450;BME280;29041;42.266;23.110;2022-11-04T10:59:16;95458.66;;;24.34;29.17
43450;BME280;29041;42.266;23.110;2022-11-04T11:02:08;95450.88;;;24.73;28.48
43450;BME280;29041;42.266;23.110;2022-11-04T11:05:12;95460.44;;;25.05;27.37
43450;BME280;29041;42.266;23.110;2022-11-04T11:07:59;95447.53;;;24.42;27.35
43450;BME280;29041;42.266;23.110;2022-11-04T11:10:50;95441.69;;;24.39;27.68
43450;BME280;29041;42.266;23.110;2022-11-04T11:13:40;95453.38;;;24.67;27.14
43450;BME280;29041;42.266;23.110;2022-11-04T11:16:28;95441.13;;;24.28;26.53
43450;BME280;29041;42.266;23.110;2022-11-04T11:19:19;95426.50;;;24.15;26.88
43450;BME280;29041;42.266;23.110;2022-11-04T11:25:31;95417.34;;;23.74;28.27
43450;BME280;29041;42.266;23.110;2022-11-04T11:28:22;95410.91;;;23.84;27.05
43450;BME280;29041;42.266;23.110;2022-11-04T11:31:12;95403.03;;;24.34;26.36
43450;BME280;29041;42.266;23.110;2022-11-04T11:34:14;95397.75;;;24.63;26.49
43450;BME280;29041;42.266;23.110;2022-11-04T11:37:03;95395.09;;;25.33;25.08
43450;BME280;29041;42.266;23.110;2022-11-04T11:39:52;95379.25;;;25.04;25.07
43450;BME280;29041;42.266;23.110;2022-11-04T11:42:40;95375.78;;;24.83;25.08
43450;BME280;29041;42.266;23.110;2022-11-04T11:45:29;95371.72;;;24.71;25.81
43450;BME280;29041;42.266;23.110;2022-11-04T11:48:37;95371.72;;;24.71;26.15
43450;BME280;29041;42.266;23.110;2022-11-04T11:51:30;95373.03;;;24.03;26.74
43450;BME280;29041;42.266;23.110;2022-11-04T11:54:22;95377.34;;;24.44;25.55
43450;BME280;29041;42.266;23.110;2022-11-04T11:57:25;95370.00;;;24.58;25.60
43450;BME280;29041;42.266;23.110;2022-11-04T12:00:16;95365.84;;;24.90;25.38
43450;BME280;29041;42.266;23.110;2022-11-04T12:03:13;95359.19;;;24.50;25.14
43450;BME280;29041;42.266;23.110;2022-11-04T12:06:15;95367.59;;;25.00;24.41
43450;BME280;29041;42.266;23.110;2022-11-04T12:09:18;95364.69;;;25.07;24.78
43450;BME280;29041;42.266;23.110;2022-11-04T12:12:24;95339.19;;;25.07;24.91
43450;BME280;29041;42.266;23.110;2022-11-04T12:15:31;95339.53;;;25.09;24.43
43450;BME280;29041;42.266;23.110;2022-11-04T12:18:37;95341.50;;;24.92;24.47
43450;BME280;29041;42.266;23.110;2022-11-04T12:21:27;95336.75;;;24.76;24.24
43450;BME280;29041;42.266;23.110;2022-11-04T12:24:27;95333.94;;;23.99;25.12
43450;BME280;29041;42.266;23.110;2022-11-04T12:27:22;95333.72;;;24.30;25.04
43450;BME280;29041;42.266;23.110;2022-11-04T12:30:15;95327.50;;;23.61;25.12
43450;BME280;29041;42.266;23.110;2022-11-04T12:33:19;95339.00;;;24.00;24.80
43450;BME280;29041;42.266;23.110;2022-11-04T12:36:26;95341.53;;;24.31;24.38
43450;BME280;29041;42.266;23.110;2022-11-04T12:39:43;95335.28;;;24.87;24.08
43450;BME280;29041;42.266;23.110;2022-11-04T12:42:41;95326.34;;;24.47;24.80
43450;BME280;29041;42.266;23.110;2022-11-04T12:45:41;95326.13;;;23.97;25.25
43450;BME280;29041;42.266;23.110;2022-11-04T12:48:41;95333.03;;;24.26;24.85
43450;BME280;29041;42.266;23.110;2022-11-04T12:51:39;95328.59;;;24.32;24.55
43450;BME280;29041;42.266;23.110;2022-11-04T12:54:43;95339.56;;;24.12;24.74
43450;BME280;29041;42.266;23.110;2022-11-04T12:57:37;95331.22;;;23.51;25.09
43450;BME280;29041;42.266;23.110;2022-11-04T13:00:30;95328.88;;;23.73;25.12
43450;BME280;29041;42.266;23.110;2022-11-04T13:03:25;95331.34;;;23.68;25.21
43450;BME280;29041;42.266;23.110;2022-11-04T13:06:17;95335.34;;;23.83;25.39
43450;BME280;29041;42.266;23.110;2022-11-04T13:09:10;95338.06;;;23.63;26.56
43450;BME280;29041;42.266;23.110;2022-11-04T13:12:03;95344.06;;;23.03;28.07
43450;BME280;29041;42.266;23.110;2022-11-04T13:14:54;95352.19;;;23.38;28.89
43450;BME280;29041;42.266;23.110;2022-11-04T13:17:43;95337.25;;;23.15;30.23
43450;BME280;29041;42.266;23.110;2022-11-04T13:20:35;95341.03;;;23.25;30.20
43450;BME280;29041;42.266;23.110;2022-11-04T13:23:33;95343.09;;;23.17;30.53
43450;BME280;29041;42.266;23.110;2022-11-04T13:26:23;95344.28;;;22.89;31.10
43450;BME280;29041;42.266;23.110;2022-11-04T13:29:13;95346.22;;;22.88;30.97
43450;BME280;29041;42.266;23.110;2022-11-04T13:32:04;95344.38;;;22.50;30.52
43450;BME280;29041;42.266;23.110;2022-11-04T13:34:58;95340.69;;;21.95;32.02
43450;BME280;29041;42.266;23.110;2022-11-04T13:37:54;95346.91;;;22.34;31.99
43450;BME280;29041;42.266;23.110;2022-11-04T13:40:54;95354.00;;;22.28;31.75
43450;BME280;29041;42.266;23.110;2022-11-04T13:43:47;95352.34;;;21.99;30.51
43450;BME280;29041;42.266;23.110;2022-11-04T13:46:37;95353.19;;;21.96;29.96
43450;BME280;29041;42.266;23.110;2022-11-04T13:49:27;95366.84;;;22.31;29.52
43450;BME280;29041;42.266;23.110;2022-11-04T13:52:17;95354.22;;;22.10;29.63
43450;BME280;29041;42.266;23.110;2022-11-04T13:55:16;95360.25;;;21.90;30.15
43450;BME280;29041;42.266;23.110;2022-11-04T13:58:06;95333.44;;;21.78;30.13
43450;BME280;29041;42.266;23.110;2022-11-04T14:01:12;95346.38;;;21.74;30.47
43450;BME280;29041;42.266;23.110;2022-11-04T14:04:27;95359.69;;;21.68;30.38
43450;BME280;29041;42.266;23.110;2022-11-04T14:07:15;95352.00;;;21.48;30.22
43450;BME280;29041;42.266;23.110;2022-11-04T14:10:36;95355.81;;;21.65;30.13
43450;BME280;29041;42.266;23.110;2022-11-04T14:16:50;95337.53;;;21.55;29.57
43450;BME280;29041;42.266;23.110;2022-11-04T14:19:54;95349.97;;;21.63;29.16
43450;BME280;29041;42.266;23.110;2022-11-04T14:22:47;95347.28;;;21.56;29.47
43450;BME280;29041;42.266;23.110;2022-11-04T14:25:37;95345.00;;;21.51;29.33
43450;BME280;29041;42.266;23.110;2022-11-04T14:28:27;95332.97;;;21.41;29.46
43450;BME280;29041;42.266;23.110;2022-11-04T14:31:33;95336.06;;;21.43;29.87
43450;BME280;29041;42.266;23.110;2022-11-04T14:34:25;95336.09;;;21.39;30.52
43450;BME280;29041;42.266;23.110;2022-11-04T14:37:19;95335.78;;;21.30;31.03
43450;BME280;29041;42.266;23.110;2022-11-04T14:40:23;95337.50;;;21.10;33.76
43450;BME280;29041;42.266;23.110;2022-11-04T14:43:27;95351.75;;;20.72;37.73
43450;BME280;29041;42.266;23.110;2022-11-04T14:46:18;95344.00;;;20.59;38.86
43450;BME280;29041;42.266;23.110;2022-11-04T14:49:17;95342.47;;;20.55;39.34
43450;BME280;29041;42.266;23.110;2022-11-04T14:52:21;95348.22;;;20.71;38.50
43450;BME280;29041;42.266;23.110;2022-11-04T14:55:12;95344.69;;;20.82;36.25
43450;BME280;29041;42.266;23.110;2022-11-04T14:58:21;95334.63;;;20.64;36.94
43450;BME280;29041;42.266;23.110;2022-11-04T15:01:09;95342.47;;;20.58;38.22
43450;BME280;29041;42.266;23.110;2022-11-04T15:04:04;95336.53;;;20.71;39.47
43450;BME280;29041;42.266;23.110;2022-11-04T15:06:53;95327.09;;;20.05;40.32
43450;BME280;29041;42.266;23.110;2022-11-04T15:09:48;95332.94;;;20.10;40.78
43450;BME280;29041;42.266;23.110;2022-11-04T15:12:42;95322.44;;;20.02;41.34
43450;BME280;29041;42.266;23.110;2022-11-04T15:15:41;95324.78;;;19.78;42.14
43450;BME280;29041;42.266;23.110;2022-11-04T15:18:29;95317.41;;;19.89;41.71
43450;BME280;29041;42.266;23.110;2022-11-04T15:21:17;95308.53;;;19.24;42.57
43450;BME280;29041;42.266;23.110;2022-11-04T15:24:05;95323.28;;;19.05;43.38
43450;BME280;29041;42.266;23.110;2022-11-04T15:26:56;95327.97;;;19.04;43.13
43450;BME280;29041;42.266;23.110;2022-11-04T15:29:52;95324.84;;;19.02;42.80
43450;BME280;29041;42.266;23.110;2022-11-04T15:32:39;95322.91;;;19.06;42.15
43450;BME280;29041;42.266;23.110;2022-11-04T15:35:28;95330.28;;;19.20;41.80
43450;BME280;29041;42.266;23.110;2022-11-04T15:38:16;95331.78;;;18.89;42.36
43450;BME280;29041;42.266;23.110;2022-11-04T15:41:03;95325.91;;;18.65;42.63
43450;BME280;29041;42.266;23.110;2022-11-04T15:44:14;95317.69;;;18.39;43.50
43450;BME280;29041;42.266;23.110;2022-11-04T15:47:19;95323.88;;;18.33;43.20
43450;BME280;29041;42.266;23.110;2022-11-04T15:50:18;95319.63;;;18.35;42.98
43450;BME280;29041;42.266;23.110;2022-11-04T15:53:08;95324.38;;;18.78;42.26
43450;BME280;29041;42.266;23.110;2022-11-04T15:55:55;95324.84;;;19.09;41.16
43450;BME280;29041;42.266;23.110;2022-11-04T15:58:43;95325.63;;;19.06;41.05
43450;BME280;29041;42.266;23.110;2022-11-04T16:01:33;95322.88;;;18.92;41.33